This is the latest recevied weather packets stored in our database for station/object KF0JHJ. If no packets are shown the sender has not sent any weather packets the latest 1 day(s).
| Time | Temp. | Humidity | Pressure | Rain* | Wind** | Luminosity | Snow |
|---|---|---|---|---|---|---|---|
| 1778022210 | 9.44° C | 44% | 1008.6 hPa | - | 1.34 m/s, 334° | 77 W/m² | - |
| 1778021907 | 9.44° C | 45% | 1008.7 hPa | - | 2.24 m/s, 347° | 100 W/m² | - |
| 1778021605 | 9.44° C | 44% | 1008.7 hPa | - | 0.45 m/s, 32° | 97 W/m² | - |
| 1778021305 | 9.44° C | 43% | 1008.9 hPa | - | 1.34 m/s, 352° | 66 W/m² | - |
| 1778021003 | 9.44° C | 42% | 1008.6 hPa | - | 0.45 m/s, 6° | 91 W/m² | - |
| 1778020700 | 10° C | 44% | 1008.5 hPa | - | 2.24 m/s, 311° | 117 W/m² | - |
| 1778020397 | 9.44° C | 43% | 1008.7 hPa | - | 2.24 m/s, 319° | 105 W/m² | - |
| 1778020092 | 10° C | 44% | 1008.4 hPa | - | 0 m/s | 109 W/m² | - |
| 1778019789 | 10° C | 43% | 1008.6 hPa | - | 0.89 m/s, 16° | 113 W/m² | - |
| 1778019486 | 10° C | 43% | 1008.6 hPa | - | 0.89 m/s, 308° | 137 W/m² | - |
| 1778019182 | 10° C | 41% | 1008.3 hPa | - | 1.79 m/s, 359° | 139 W/m² | - |
| 1778018880 | 10.56° C | 40% | 1008.3 hPa | - | 2.24 m/s, 321° | 158 W/m² | - |
| 1778018577 | 10.56° C | 41% | 1008.3 hPa | - | 1.79 m/s, 340° | 212 W/m² | - |
| 1778018275 | 10.56° C | 43% | 1008.2 hPa | - | 1.34 m/s, 340° | 154 W/m² | - |
| 1778017973 | 10.56° C | 42% | 1008.5 hPa | - | 0 m/s | 141 W/m² | - |
| 1778017670 | 11.11° C | 41% | 1008.4 hPa | - | 0 m/s | 179 W/m² | - |
| 1778017367 | 10.56° C | 41% | 1008.5 hPa | - | 0 m/s | 234 W/m² | - |
| 1778017064 | 10° C | 43% | 1008.6 hPa | - | 0.89 m/s, 0° | 144 W/m² | - |
| 1778016761 | 10° C | 42% | 1008.7 hPa | - | 0 m/s | 204 W/m² | - |
| 1778016457 | 10° C | 42% | 1008.7 hPa | - | 0.89 m/s, 38° | 139 W/m² | - |
| 1778016155 | 10° C | 43% | 1008.8 hPa | - | 0.89 m/s, 255° | 130 W/m² | - |
| 1778015852 | 10° C | 43% | 1008.8 hPa | - | 0.45 m/s, 23° | 181 W/m² | - |
| 1778015549 | 10° C | 43% | 1008.7 hPa | - | 1.34 m/s, 18° | 210 W/m² | - |
| 1778015245 | 10° C | 42% | 1008.7 hPa | - | 0 m/s | 175 W/m² | - |
| 1778014942 | 10° C | 45% | 1008.7 hPa | - | 0 m/s | 289 W/m² | - |
* Rain since midnight (hover to see other rain measurements)
** Current wind speed in m/s (hover to see current wind gust speed)